sensor_id;sensor_type;location;lat;lon;timestamp;P1;durP1;ratioP1;P2;durP2;ratioP2
8572;SDS011;4324;42.012;24.872;2022-09-23T00:00:57;2.70;;;2.40;;
8572;SDS011;4324;42.012;24.872;2022-09-23T00:03:27;3.10;;;2.50;;
8572;SDS011;4324;42.012;24.872;2022-09-23T00:05:59;3.50;;;2.50;;
8572;SDS011;4324;42.012;24.872;2022-09-23T00:08:26;2.30;;;2.20;;
8572;SDS011;4324;42.012;24.872;2022-09-23T00:10:54;2.10;;;2.00;;
8572;SDS011;4324;42.012;24.872;2022-09-23T00:13:21;2.83;;;2.63;;
8572;SDS011;4324;42.012;24.872;2022-09-23T00:15:48;2.60;;;2.07;;
8572;SDS011;4324;42.012;24.872;2022-09-23T00:18:16;6.53;;;2.20;;
8572;SDS011;4324;42.012;24.872;2022-09-23T00:20:46;2.80;;;2.60;;
8572;SDS011;4324;42.012;24.872;2022-09-23T00:23:13;2.60;;;2.40;;
8572;SDS011;4324;42.012;24.872;2022-09-23T00:25:40;2.30;;;2.10;;
8572;SDS011;4324;42.012;24.872;2022-09-23T00:28:07;2.70;;;2.50;;
8572;SDS011;4324;42.012;24.872;2022-09-23T00:30:34;2.30;;;2.10;;
8572;SDS011;4324;42.012;24.872;2022-09-23T00:33:01;3.47;;;2.20;;
8572;SDS011;4324;42.012;24.872;2022-09-23T00:35:27;2.50;;;2.30;;
8572;SDS011;4324;42.012;24.872;2022-09-23T00:37:56;2.30;;;2.10;;
8572;SDS011;4324;42.012;24.872;2022-09-23T00:40:22;3.47;;;2.20;;
8572;SDS011;4324;42.012;24.872;2022-09-23T00:42:50;2.30;;;2.10;;
8572;SDS011;4324;42.012;24.872;2022-09-23T00:45:17;2.40;;;2.20;;
8572;SDS011;4324;42.012;24.872;2022-09-23T00:47:45;3.90;;;2.40;;
8572;SDS011;4324;42.012;24.872;2022-09-23T00:50:19;2.40;;;2.20;;
8572;SDS011;4324;42.012;24.872;2022-09-23T00:52:50;3.20;;;2.40;;
8572;SDS011;4324;42.012;24.872;2022-09-23T00:55:22;2.53;;;2.17;;
8572;SDS011;4324;42.012;24.872;2022-09-23T00:57:53;2.63;;;2.43;;
8572;SDS011;4324;42.012;24.872;2022-09-23T01:00:22;2.60;;;2.40;;
8572;SDS011;4324;42.012;24.872;2022-09-23T01:02:49;2.50;;;2.30;;
8572;SDS011;4324;42.012;24.872;2022-09-23T01:05:16;2.40;;;2.20;;
8572;SDS011;4324;42.012;24.872;2022-09-23T01:07:44;2.80;;;2.60;;
8572;SDS011;4324;42.012;24.872;2022-09-23T01:10:13;2.60;;;2.40;;
8572;SDS011;4324;42.012;24.872;2022-09-23T01:12:48;2.60;;;2.40;;
8572;SDS011;4324;42.012;24.872;2022-09-23T01:15:31;2.53;;;2.33;;
8572;SDS011;4324;42.012;24.872;2022-09-23T01:18:09;2.33;;;2.13;;
8572;SDS011;4324;42.012;24.872;2022-09-23T01:26:53;3.53;;;2.20;;
8572;SDS011;4324;42.012;24.872;2022-09-23T01:32:43;2.50;;;2.30;;
8572;SDS011;4324;42.012;24.872;2022-09-23T01:35:22;2.63;;;2.43;;
8572;SDS011;4324;42.012;24.872;2022-09-23T01:37:56;3.00;;;2.53;;
8572;SDS011;4324;42.012;24.872;2022-09-23T01:40:32;3.27;;;2.97;;
8572;SDS011;4324;42.012;24.872;2022-09-23T01:43:11;2.30;;;2.10;;
8572;SDS011;4324;42.012;24.872;2022-09-23T01:45:41;2.20;;;2.00;;
8572;SDS011;4324;42.012;24.872;2022-09-23T01:48:21;2.50;;;2.30;;
8572;SDS011;4324;42.012;24.872;2022-09-23T01:50:53;2.40;;;2.17;;
8572;SDS011;4324;42.012;24.872;2022-09-23T01:53:27;2.33;;;2.13;;
8572;SDS011;4324;42.012;24.872;2022-09-23T01:56:04;6.27;;;3.03;;
8572;SDS011;4324;42.012;24.872;2022-09-23T01:58:38;3.70;;;3.07;;
8572;SDS011;4324;42.012;24.872;2022-09-23T02:01:08;2.73;;;2.30;;
8572;SDS011;4324;42.012;24.872;2022-09-23T02:03:42;3.70;;;2.50;;
8572;SDS011;4324;42.012;24.872;2022-09-23T02:06:15;2.80;;;2.10;;
8572;SDS011;4324;42.012;24.872;2022-09-23T02:08:48;2.50;;;2.30;;
8572;SDS011;4324;42.012;24.872;2022-09-23T02:11:18;2.13;;;2.03;;
8572;SDS011;4324;42.012;24.872;2022-09-23T02:13:47;2.20;;;2.00;;
8572;SDS011;4324;42.012;24.872;2022-09-23T02:16:22;2.23;;;2.10;;
8572;SDS011;4324;42.012;24.872;2022-09-23T02:18:54;2.10;;;1.90;;
8572;SDS011;4324;42.012;24.872;2022-09-23T02:21:25;2.30;;;2.10;;
8572;SDS011;4324;42.012;24.872;2022-09-23T02:23:57;2.20;;;2.10;;
8572;SDS011;4324;42.012;24.872;2022-09-23T02:26:34;2.00;;;1.90;;
8572;SDS011;4324;42.012;24.872;2022-09-23T02:29:08;3.77;;;2.13;;
8572;SDS011;4324;42.012;24.872;2022-09-23T02:31:44;2.30;;;2.17;;
8572;SDS011;4324;42.012;24.872;2022-09-23T02:34:23;2.20;;;2.00;;
8572;SDS011;4324;42.012;24.872;2022-09-23T02:37:01;2.07;;;1.93;;
8572;SDS011;4324;42.012;24.872;2022-09-23T02:39:37;2.70;;;2.33;;
8572;SDS011;4324;42.012;24.872;2022-09-23T02:42:14;2.57;;;2.37;;
8572;SDS011;4324;42.012;24.872;2022-09-23T02:44:46;2.37;;;2.17;;
8572;SDS011;4324;42.012;24.872;2022-09-23T02:47:14;2.40;;;2.20;;
8572;SDS011;4324;42.012;24.872;2022-09-23T02:49:46;2.27;;;2.10;;
8572;SDS011;4324;42.012;24.872;2022-09-23T02:52:13;2.67;;;2.20;;
8572;SDS011;4324;42.012;24.872;2022-09-23T02:54:42;2.10;;;1.90;;
8572;SDS011;4324;42.012;24.872;2022-09-23T02:57:09;2.13;;;1.93;;
8572;SDS011;4324;42.012;24.872;2022-09-23T02:59:37;2.37;;;2.17;;
8572;SDS011;4324;42.012;24.872;2022-09-23T03:02:17;2.37;;;2.17;;
8572;SDS011;4324;42.012;24.872;2022-09-23T03:04:59;2.50;;;2.10;;
8572;SDS011;4324;42.012;24.872;2022-09-23T03:07:32;2.20;;;2.10;;
8572;SDS011;4324;42.012;24.872;2022-09-23T03:10:08;2.30;;;2.10;;
8572;SDS011;4324;42.012;24.872;2022-09-23T03:12:42;2.43;;;2.23;;
8572;SDS011;4324;42.012;24.872;2022-09-23T03:15:19;2.40;;;2.20;;
8572;SDS011;4324;42.012;24.872;2022-09-23T03:17:54;2.07;;;1.97;;
8572;SDS011;4324;42.012;24.872;2022-09-23T03:20:27;3.00;;;2.30;;
8572;SDS011;4324;42.012;24.872;2022-09-23T03:23:00;2.60;;;2.40;;
8572;SDS011;4324;42.012;24.872;2022-09-23T03:25:31;2.10;;;2.00;;
8572;SDS011;4324;42.012;24.872;2022-09-23T03:28:02;3.20;;;2.90;;
8572;SDS011;4324;42.012;24.872;2022-09-23T03:30:32;3.97;;;3.30;;
8572;SDS011;4324;42.012;24.872;2022-09-23T03:33:00;2.60;;;2.40;;
8572;SDS011;4324;42.012;24.872;2022-09-23T03:35:40;3.33;;;3.03;;
8572;SDS011;4324;42.012;24.872;2022-09-23T03:38:34;2.90;;;2.70;;
8572;SDS011;4324;42.012;24.872;2022-09-23T03:41:07;2.70;;;2.33;;
8572;SDS011;4324;42.012;24.872;2022-09-23T03:43:36;2.50;;;2.30;;
8572;SDS011;4324;42.012;24.872;2022-09-23T03:46:04;3.50;;;3.20;;
8572;SDS011;4324;42.012;24.872;2022-09-23T03:48:32;3.20;;;2.90;;
8572;SDS011;4324;42.012;24.872;2022-09-23T03:51:01;3.30;;;2.83;;
8572;SDS011;4324;42.012;24.872;2022-09-23T03:53:45;2.37;;;2.10;;
8572;SDS011;4324;42.012;24.872;2022-09-23T03:56:15;2.80;;;2.47;;
8572;SDS011;4324;42.012;24.872;2022-09-23T03:58:42;3.53;;;3.30;;
8572;SDS011;4324;42.012;24.872;2022-09-23T04:01:10;3.43;;;3.13;;
8572;SDS011;4324;42.012;24.872;2022-09-23T04:03:38;3.93;;;3.50;;
8572;SDS011;4324;42.012;24.872;2022-09-23T04:06:07;5.10;;;4.40;;
8572;SDS011;4324;42.012;24.872;2022-09-23T04:08:37;4.87;;;2.90;;
8572;SDS011;4324;42.012;24.872;2022-09-23T04:11:04;5.30;;;2.90;;
8572;SDS011;4324;42.012;24.872;2022-09-23T04:13:32;3.47;;;3.17;;
8572;SDS011;4324;42.012;24.872;2022-09-23T04:15:59;4.37;;;3.00;;
8572;SDS011;4324;42.012;24.872;2022-09-23T04:18:26;2.73;;;2.53;;
8572;SDS011;4324;42.012;24.872;2022-09-23T04:20:57;2.97;;;2.33;;
8572;SDS011;4324;42.012;24.872;2022-09-23T04:23:26;3.20;;;2.70;;
8572;SDS011;4324;42.012;24.872;2022-09-23T04:25:53;3.03;;;2.73;;
8572;SDS011;4324;42.012;24.872;2022-09-23T04:28:21;2.80;;;2.60;;
8572;SDS011;4324;42.012;24.872;2022-09-23T04:30:48;4.40;;;2.50;;
8572;SDS011;4324;42.012;24.872;2022-09-23T04:33:15;2.60;;;2.40;;
8572;SDS011;4324;42.012;24.872;2022-09-23T04:35:42;4.30;;;2.43;;
8572;SDS011;4324;42.012;24.872;2022-09-23T04:38:10;2.50;;;2.30;;
8572;SDS011;4324;42.012;24.872;2022-09-23T04:40:38;3.93;;;2.70;;
8572;SDS011;4324;42.012;24.872;2022-09-23T04:43:05;8.40;;;3.20;;
8572;SDS011;4324;42.012;24.872;2022-09-23T04:45:32;4.40;;;4.00;;
8572;SDS011;4324;42.012;24.872;2022-09-23T04:47:59;7.37;;;5.20;;
8572;SDS011;4324;42.012;24.872;2022-09-23T04:50:26;4.67;;;3.40;;
8572;SDS011;4324;42.012;24.872;2022-09-23T04:52:54;4.27;;;2.37;;
8572;SDS011;4324;42.012;24.872;2022-09-23T04:55:21;2.70;;;2.50;;
8572;SDS011;4324;42.012;24.872;2022-09-23T04:57:49;3.47;;;3.17;;
8572;SDS011;4324;42.012;24.872;2022-09-23T05:00:16;8.07;;;6.20;;
8572;SDS011;4324;42.012;24.872;2022-09-23T05:02:43;4.87;;;4.17;;
8572;SDS011;4324;42.012;24.872;2022-09-23T05:05:10;3.27;;;2.97;;
8572;SDS011;4324;42.012;24.872;2022-09-23T05:07:38;3.40;;;3.10;;
8572;SDS011;4324;42.012;24.872;2022-09-23T05:10:06;3.27;;;2.90;;
8572;SDS011;4324;42.012;24.872;2022-09-23T05:12:33;3.67;;;2.73;;
8572;SDS011;4324;42.012;24.872;2022-09-23T05:15:01;2.87;;;2.50;;
8572;SDS011;4324;42.012;24.872;2022-09-23T05:17:29;2.87;;;2.60;;
8572;SDS011;4324;42.012;24.872;2022-09-23T05:19:56;3.20;;;2.77;;
8572;SDS011;4324;42.012;24.872;2022-09-23T05:22:23;8.57;;;3.43;;
8572;SDS011;4324;42.012;24.872;2022-09-23T05:24:51;3.20;;;2.90;;
8572;SDS011;4324;42.012;24.872;2022-09-23T05:27:18;2.90;;;2.60;;
8572;SDS011;4324;42.012;24.872;2022-09-23T05:29:46;5.43;;;2.30;;
8572;SDS011;4324;42.012;24.872;2022-09-23T05:32:15;5.13;;;3.20;;
8572;SDS011;4324;42.012;24.872;2022-09-23T05:34:41;6.43;;;4.20;;
8572;SDS011;4324;42.012;24.872;2022-09-23T05:37:08;3.83;;;3.40;;
8572;SDS011;4324;42.012;24.872;2022-09-23T05:39:35;2.90;;;2.60;;
8572;SDS011;4324;42.012;24.872;2022-09-23T05:42:04;3.17;;;2.87;;
8572;SDS011;4324;42.012;24.872;2022-09-23T05:44:31;5.27;;;3.97;;
8572;SDS011;4324;42.012;24.872;2022-09-23T05:46:58;5.93;;;4.27;;
8572;SDS011;4324;42.012;24.872;2022-09-23T05:49:26;5.17;;;3.60;;
8572;SDS011;4324;42.012;24.872;2022-09-23T05:51:53;5.07;;;3.37;;
8572;SDS011;4324;42.012;24.872;2022-09-23T05:54:20;5.97;;;4.00;;
8572;SDS011;4324;42.012;24.872;2022-09-23T05:56:47;4.07;;;3.67;;
8572;SDS011;4324;42.012;24.872;2022-09-23T05:59:13;5.00;;;4.60;;
8572;SDS011;4324;42.012;24.872;2022-09-23T06:01:40;4.77;;;4.30;;
8572;SDS011;4324;42.012;24.872;2022-09-23T06:04:10;3.27;;;2.97;;
8572;SDS011;4324;42.012;24.872;2022-09-23T06:06:40;4.97;;;3.10;;
8572;SDS011;4324;42.012;24.872;2022-09-23T06:09:09;2.70;;;2.50;;
8572;SDS011;4324;42.012;24.872;2022-09-23T06:11:37;2.50;;;2.30;;
8572;SDS011;4324;42.012;24.872;2022-09-23T06:14:05;3.13;;;2.73;;
8572;SDS011;4324;42.012;24.872;2022-09-23T06:16:34;2.60;;;2.40;;
8572;SDS011;4324;42.012;24.872;2022-09-23T06:19:01;10.80;;;2.90;;
8572;SDS011;4324;42.012;24.872;2022-09-23T06:21:30;3.93;;;2.73;;
8572;SDS011;4324;42.012;24.872;2022-09-23T06:23:59;4.87;;;3.67;;
8572;SDS011;4324;42.012;24.872;2022-09-23T06:26:27;5.50;;;3.87;;
8572;SDS011;4324;42.012;24.872;2022-09-23T06:28:58;4.57;;;4.17;;
8572;SDS011;4324;42.012;24.872;2022-09-23T06:31:26;7.17;;;5.87;;
8572;SDS011;4324;42.012;24.872;2022-09-23T06:33:54;8.97;;;8.07;;
8572;SDS011;4324;42.012;24.872;2022-09-23T06:36:21;6.17;;;5.57;;
8572;SDS011;4324;42.012;24.872;2022-09-23T06:38:48;4.17;;;2.90;;
8572;SDS011;4324;42.012;24.872;2022-09-23T06:41:16;5.77;;;3.90;;
8572;SDS011;4324;42.012;24.872;2022-09-23T06:43:44;3.80;;;3.30;;
8572;SDS011;4324;42.012;24.872;2022-09-23T06:46:12;3.80;;;3.50;;
8572;SDS011;4324;42.012;24.872;2022-09-23T06:48:41;4.60;;;3.60;;
8572;SDS011;4324;42.012;24.872;2022-09-23T06:51:09;8.30;;;4.53;;
8572;SDS011;4324;42.012;24.872;2022-09-23T06:53:43;4.70;;;4.23;;
8572;SDS011;4324;42.012;24.872;2022-09-23T06:56:11;4.43;;;4.03;;
8572;SDS011;4324;42.012;24.872;2022-09-23T06:58:39;4.87;;;4.37;;
8572;SDS011;4324;42.012;24.872;2022-09-23T07:01:08;7.33;;;4.77;;
8572;SDS011;4324;42.012;24.872;2022-09-23T07:03:36;4.30;;;4.00;;
8572;SDS011;4324;42.012;24.872;2022-09-23T07:06:04;4.33;;;3.97;;
8572;SDS011;4324;42.012;24.872;2022-09-23T07:08:32;5.47;;;4.03;;
8572;SDS011;4324;42.012;24.872;2022-09-23T07:11:01;4.10;;;3.80;;
8572;SDS011;4324;42.012;24.872;2022-09-23T07:13:29;4.87;;;4.47;;
8572;SDS011;4324;42.012;24.872;2022-09-23T07:15:59;6.97;;;4.10;;
8572;SDS011;4324;42.012;24.872;2022-09-23T07:18:28;4.20;;;3.80;;
8572;SDS011;4324;42.012;24.872;2022-09-23T07:21:03;3.93;;;3.63;;
8572;SDS011;4324;42.012;24.872;2022-09-23T07:23:31;3.90;;;3.60;;
8572;SDS011;4324;42.012;24.872;2022-09-23T07:25:58;3.93;;;3.63;;
8572;SDS011;4324;42.012;24.872;2022-09-23T07:28:26;3.70;;;3.40;;
8572;SDS011;4324;42.012;24.872;2022-09-23T07:30:53;4.50;;;4.00;;
8572;SDS011;4324;42.012;24.872;2022-09-23T07:33:22;3.53;;;3.23;;
8572;SDS011;4324;42.012;24.872;2022-09-23T07:35:49;3.63;;;3.33;;
8572;SDS011;4324;42.012;24.872;2022-09-23T07:38:16;3.77;;;3.47;;
8572;SDS011;4324;42.012;24.872;2022-09-23T07:40:43;3.77;;;3.47;;
8572;SDS011;4324;42.012;24.872;2022-09-23T07:43:12;4.60;;;3.60;;
8572;SDS011;4324;42.012;24.872;2022-09-23T07:45:46;3.37;;;3.07;;
8572;SDS011;4324;42.012;24.872;2022-09-23T07:48:13;3.50;;;3.13;;
8572;SDS011;4324;42.012;24.872;2022-09-23T07:50:41;5.07;;;3.40;;
8572;SDS011;4324;42.012;24.872;2022-09-23T07:53:08;4.27;;;3.87;;
8572;SDS011;4324;42.012;24.872;2022-09-23T07:55:35;3.63;;;3.33;;
8572;SDS011;4324;42.012;24.872;2022-09-23T07:58:02;3.97;;;3.20;;
8572;SDS011;4324;42.012;24.872;2022-09-23T08:00:29;4.73;;;3.50;;
8572;SDS011;4324;42.012;24.872;2022-09-23T08:02:57;3.60;;;3.30;;
8572;SDS011;4324;42.012;24.872;2022-09-23T08:05:24;4.57;;;3.10;;
8572;SDS011;4324;42.012;24.872;2022-09-23T08:07:53;3.27;;;3.07;;
8572;SDS011;4324;42.012;24.872;2022-09-23T08:10:19;4.10;;;3.60;;
8572;SDS011;4324;42.012;24.872;2022-09-23T08:12:46;4.97;;;3.83;;
8572;SDS011;4324;42.012;24.872;2022-09-23T08:15:13;6.63;;;4.57;;
8572;SDS011;4324;42.012;24.872;2022-09-23T08:17:41;3.93;;;3.63;;
8572;SDS011;4324;42.012;24.872;2022-09-23T08:20:09;3.60;;;3.30;;
8572;SDS011;4324;42.012;24.872;2022-09-23T08:22:58;3.50;;;3.20;;
8572;SDS011;4324;42.012;24.872;2022-09-23T08:25:25;3.90;;;3.50;;
8572;SDS011;4324;42.012;24.872;2022-09-23T08:27:52;3.70;;;3.40;;
8572;SDS011;4324;42.012;24.872;2022-09-23T08:30:19;4.77;;;3.20;;
8572;SDS011;4324;42.012;24.872;2022-09-23T08:32:48;3.60;;;3.23;;
8572;SDS011;4324;42.012;24.872;2022-09-23T08:35:16;6.60;;;2.93;;
8572;SDS011;4324;42.012;24.872;2022-09-23T08:37:43;2.77;;;2.57;;
8572;SDS011;4324;42.012;24.872;2022-09-23T08:40:12;3.17;;;2.97;;
8572;SDS011;4324;42.012;24.872;2022-09-23T08:42:39;4.10;;;3.43;;
8572;SDS011;4324;42.012;24.872;2022-09-23T08:45:12;3.13;;;2.93;;
8572;SDS011;4324;42.012;24.872;2022-09-23T08:47:44;3.10;;;2.90;;
8572;SDS011;4324;42.012;24.872;2022-09-23T08:50:18;5.47;;;2.97;;
8572;SDS011;4324;42.012;24.872;2022-09-23T08:52:48;3.33;;;3.03;;
8572;SDS011;4324;42.012;24.872;2022-09-23T08:55:20;3.23;;;2.93;;
8572;SDS011;4324;42.012;24.872;2022-09-23T08:58:04;3.53;;;3.03;;
8572;SDS011;4324;42.012;24.872;2022-09-23T09:00:52;3.10;;;2.90;;
8572;SDS011;4324;42.012;24.872;2022-09-23T09:03:29;5.07;;;3.40;;
8572;SDS011;4324;42.012;24.872;2022-09-23T09:06:01;4.63;;;3.30;;
8572;SDS011;4324;42.012;24.872;2022-09-23T09:08:29;4.57;;;3.47;;
8572;SDS011;4324;42.012;24.872;2022-09-23T09:11:00;3.07;;;2.77;;
8572;SDS011;4324;42.012;24.872;2022-09-23T09:13:29;3.57;;;3.27;;
8572;SDS011;4324;42.012;24.872;2022-09-23T09:16:04;3.40;;;3.10;;
8572;SDS011;4324;42.012;24.872;2022-09-23T09:18:44;4.67;;;2.97;;
8572;SDS011;4324;42.012;24.872;2022-09-23T09:21:17;3.33;;;3.03;;
8572;SDS011;4324;42.012;24.872;2022-09-23T09:23:53;3.47;;;3.17;;
8572;SDS011;4324;42.012;24.872;2022-09-23T09:26:23;4.33;;;2.93;;
8572;SDS011;4324;42.012;24.872;2022-09-23T09:28:53;3.30;;;3.10;;
8572;SDS011;4324;42.012;24.872;2022-09-23T09:31:25;4.00;;;3.60;;
8572;SDS011;4324;42.012;24.872;2022-09-23T09:33:59;3.03;;;2.83;;
8572;SDS011;4324;42.012;24.872;2022-09-23T09:36:35;3.40;;;3.10;;
8572;SDS011;4324;42.012;24.872;2022-09-23T09:39:05;3.17;;;2.57;;
8572;SDS011;4324;42.012;24.872;2022-09-23T09:41:38;3.73;;;3.33;;
8572;SDS011;4324;42.012;24.872;2022-09-23T09:44:08;3.13;;;2.93;;
8572;SDS011;4324;42.012;24.872;2022-09-23T09:46:50;2.97;;;2.67;;
8572;SDS011;4324;42.012;24.872;2022-09-23T09:49:26;4.90;;;4.00;;
8572;SDS011;4324;42.012;24.872;2022-09-23T09:54:48;4.40;;;3.57;;
8572;SDS011;4324;42.012;24.872;2022-09-23T09:57:18;5.73;;;3.37;;
8572;SDS011;4324;42.012;24.872;2022-09-23T09:59:55;4.30;;;3.13;;
8572;SDS011;4324;42.012;24.872;2022-09-23T10:02:23;3.03;;;2.83;;
8572;SDS011;4324;42.012;24.872;2022-09-23T10:05:05;3.30;;;3.00;;
8572;SDS011;4324;42.012;24.872;2022-09-23T10:07:34;2.77;;;2.50;;
8572;SDS011;4324;42.012;24.872;2022-09-23T10:10:10;2.50;;;2.30;;
8572;SDS011;4324;42.012;24.872;2022-09-23T10:12:46;2.80;;;2.60;;
8572;SDS011;4324;42.012;24.872;2022-09-23T10:15:25;3.10;;;2.70;;
8572;SDS011;4324;42.012;24.872;2022-09-23T10:17:55;3.27;;;2.97;;
8572;SDS011;4324;42.012;24.872;2022-09-23T10:20:25;3.23;;;2.63;;
8572;SDS011;4324;42.012;24.872;2022-09-23T10:23:04;3.13;;;2.80;;
8572;SDS011;4324;42.012;24.872;2022-09-23T10:25:32;3.10;;;2.83;;
8572;SDS011;4324;42.012;24.872;2022-09-23T10:31:04;3.00;;;2.80;;
8572;SDS011;4324;42.012;24.872;2022-09-23T10:33:32;2.97;;;2.67;;
8572;SDS011;4324;42.012;24.872;2022-09-23T10:36:07;3.50;;;3.00;;
8572;SDS011;4324;42.012;24.872;2022-09-23T10:38:35;3.20;;;2.83;;
8572;SDS011;4324;42.012;24.872;2022-09-23T10:41:02;3.90;;;3.57;;
8572;SDS011;4324;42.012;24.872;2022-09-23T10:43:58;4.40;;;3.20;;
8572;SDS011;4324;42.012;24.872;2022-09-23T10:46:54;3.33;;;3.00;;
8572;SDS011;4324;42.012;24.872;2022-09-23T10:49:35;2.97;;;2.60;;
8572;SDS011;4324;42.012;24.872;2022-09-23T10:52:26;2.50;;;2.30;;
8572;SDS011;4324;42.012;24.872;2022-09-23T10:55:11;2.70;;;2.50;;
8572;SDS011;4324;42.012;24.872;2022-09-23T10:57:52;4.63;;;4.23;;
8572;SDS011;4324;42.012;24.872;2022-09-23T11:00:36;2.77;;;2.50;;
8572;SDS011;4324;42.012;24.872;2022-09-23T11:03:15;2.27;;;2.17;;
8572;SDS011;4324;42.012;24.872;2022-09-23T11:06:21;4.00;;;2.20;;
8572;SDS011;4324;42.012;24.872;2022-09-23T11:09:01;4.77;;;2.13;;
8572;SDS011;4324;42.012;24.872;2022-09-23T11:11:44;3.23;;;2.70;;
8572;SDS011;4324;42.012;24.872;2022-09-23T11:14:28;2.50;;;2.30;;
8572;SDS011;4324;42.012;24.872;2022-09-23T11:20:31;1.97;;;1.70;;
8572;SDS011;4324;42.012;24.872;2022-09-23T11:23:20;2.00;;;1.90;;
8572;SDS011;4324;42.012;24.872;2022-09-23T11:26:07;2.50;;;2.30;;
8572;SDS011;4324;42.012;24.872;2022-09-23T11:28:54;5.33;;;2.57;;
8572;SDS011;4324;42.012;24.872;2022-09-23T11:31:36;2.07;;;1.97;;
8572;SDS011;4324;42.012;24.872;2022-09-23T11:34:17;2.63;;;1.97;;
8572;SDS011;4324;42.012;24.872;2022-09-23T11:36:59;1.97;;;1.87;;
8572;SDS011;4324;42.012;24.872;2022-09-23T11:39:33;2.00;;;1.90;;
8572;SDS011;4324;42.012;24.872;2022-09-23T11:42:03;2.13;;;2.03;;
8572;SDS011;4324;42.012;24.872;2022-09-23T11:44:37;2.47;;;1.80;;
8572;SDS011;4324;42.012;24.872;2022-09-23T11:47:09;3.53;;;2.73;;
8572;SDS011;4324;42.012;24.872;2022-09-23T11:49:48;2.40;;;2.20;;
8572;SDS011;4324;42.012;24.872;2022-09-23T11:52:20;1.70;;;1.60;;
8572;SDS011;4324;42.012;24.872;2022-09-23T11:54:53;2.60;;;2.40;;
8572;SDS011;4324;42.012;24.872;2022-09-23T11:57:24;3.37;;;2.70;;
8572;SDS011;4324;42.012;24.872;2022-09-23T11:59:59;2.00;;;1.90;;
8572;SDS011;4324;42.012;24.872;2022-09-23T12:02:30;3.40;;;1.70;;
8572;SDS011;4324;42.012;24.872;2022-09-23T12:05:09;2.80;;;2.00;;
8572;SDS011;4324;42.012;24.872;2022-09-23T12:07:42;2.60;;;1.87;;
8572;SDS011;4324;42.012;24.872;2022-09-23T12:10:18;2.47;;;2.27;;
8572;SDS011;4324;42.012;24.872;2022-09-23T12:12:50;3.17;;;2.87;;
8572;SDS011;4324;42.012;24.872;2022-09-23T12:15:31;1.90;;;1.80;;
8572;SDS011;4324;42.012;24.872;2022-09-23T12:21:32;2.57;;;2.17;;
8572;SDS011;4324;42.012;24.872;2022-09-23T12:27:14;2.00;;;1.80;;
8572;SDS011;4324;42.012;24.872;2022-09-23T12:29:48;1.93;;;1.83;;
8572;SDS011;4324;42.012;24.872;2022-09-23T12:32:21;2.20;;;2.03;;
8572;SDS011;4324;42.012;24.872;2022-09-23T12:34:50;2.07;;;1.50;;
8572;SDS011;4324;42.012;24.872;2022-09-23T12:37:23;1.80;;;1.70;;
8572;SDS011;4324;42.012;24.872;2022-09-23T12:39:53;1.97;;;1.50;;
8572;SDS011;4324;42.012;24.872;2022-09-23T12:42:27;1.60;;;1.50;;
8572;SDS011;4324;42.012;24.872;2022-09-23T12:45:15;1.97;;;1.80;;
8572;SDS011;4324;42.012;24.872;2022-09-23T12:47:59;1.93;;;1.60;;
8572;SDS011;4324;42.012;24.872;2022-09-23T12:56:27;3.70;;;3.40;;
8572;SDS011;4324;42.012;24.872;2022-09-23T12:59:24;1.90;;;1.80;;
8572;SDS011;4324;42.012;24.872;2022-09-23T13:01:52;1.63;;;1.53;;
8572;SDS011;4324;42.012;24.872;2022-09-23T13:04:33;2.20;;;1.80;;
8572;SDS011;4324;42.012;24.872;2022-09-23T13:07:27;2.47;;;2.27;;
8572;SDS011;4324;42.012;24.872;2022-09-23T13:10:01;3.27;;;2.27;;
8572;SDS011;4324;42.012;24.872;2022-09-23T13:12:45;1.90;;;1.80;;
8572;SDS011;4324;42.012;24.872;2022-09-23T13:15:20;1.70;;;1.57;;
8572;SDS011;4324;42.012;24.872;2022-09-23T13:17:53;2.30;;;1.60;;
8572;SDS011;4324;42.012;24.872;2022-09-23T13:20:54;2.70;;;2.00;;
8572;SDS011;4324;42.012;24.872;2022-09-23T13:23:22;1.87;;;1.67;;
8572;SDS011;4324;42.012;24.872;2022-09-23T13:25:50;1.87;;;1.63;;
8572;SDS011;4324;42.012;24.872;2022-09-23T13:31:12;2.17;;;2.00;;
8572;SDS011;4324;42.012;24.872;2022-09-23T13:33:43;1.60;;;1.50;;
8572;SDS011;4324;42.012;24.872;2022-09-23T13:36:13;3.33;;;1.70;;
8572;SDS011;4324;42.012;24.872;2022-09-23T13:38:41;2.03;;;1.93;;
8572;SDS011;4324;42.012;24.872;2022-09-23T13:41:12;2.23;;;1.70;;
8572;SDS011;4324;42.012;24.872;2022-09-23T13:43:44;1.83;;;1.73;;
8572;SDS011;4324;42.012;24.872;2022-09-23T13:46:15;2.10;;;2.00;;
8572;SDS011;4324;42.012;24.872;2022-09-23T13:48:44;3.47;;;3.17;;
8572;SDS011;4324;42.012;24.872;2022-09-23T13:51:15;4.63;;;3.63;;
8572;SDS011;4324;42.012;24.872;2022-09-23T13:53:50;3.00;;;2.80;;
8572;SDS011;4324;42.012;24.872;2022-09-23T13:56:19;2.57;;;2.23;;
8572;SDS011;4324;42.012;24.872;2022-09-23T13:58:47;2.87;;;1.83;;
8572;SDS011;4324;42.012;24.872;2022-09-23T14:01:19;1.93;;;1.80;;
8572;SDS011;4324;42.012;24.872;2022-09-23T14:03:48;3.43;;;2.93;;
8572;SDS011;4324;42.012;24.872;2022-09-23T14:06:16;3.43;;;3.17;;
8572;SDS011;4324;42.012;24.872;2022-09-23T14:08:43;5.10;;;4.60;;
8572;SDS011;4324;42.012;24.872;2022-09-23T14:11:15;5.03;;;4.07;;
8572;SDS011;4324;42.012;24.872;2022-09-23T14:13:44;3.80;;;2.57;;
8572;SDS011;4324;42.012;24.872;2022-09-23T14:16:16;4.03;;;2.50;;
8572;SDS011;4324;42.012;24.872;2022-09-23T14:18:44;2.87;;;2.67;;
8572;SDS011;4324;42.012;24.872;2022-09-23T14:21:26;3.13;;;2.57;;
8572;SDS011;4324;42.012;24.872;2022-09-23T14:23:55;3.13;;;2.60;;
8572;SDS011;4324;42.012;24.872;2022-09-23T14:26:30;3.33;;;3.03;;
8572;SDS011;4324;42.012;24.872;2022-09-23T14:28:57;6.07;;;3.40;;
8572;SDS011;4324;42.012;24.872;2022-09-23T14:31:25;3.07;;;2.80;;
8572;SDS011;4324;42.012;24.872;2022-09-23T14:33:53;3.27;;;2.90;;
8572;SDS011;4324;42.012;24.872;2022-09-23T14:36:19;3.27;;;2.30;;
8572;SDS011;4324;42.012;24.872;2022-09-23T14:39:05;4.77;;;4.37;;
8572;SDS011;4324;42.012;24.872;2022-09-23T14:41:34;4.83;;;4.47;;
8572;SDS011;4324;42.012;24.872;2022-09-23T14:44:04;3.90;;;2.73;;
8572;SDS011;4324;42.012;24.872;2022-09-23T14:46:34;4.20;;;3.20;;
8572;SDS011;4324;42.012;24.872;2022-09-23T14:49:04;2.60;;;2.40;;
8572;SDS011;4324;42.012;24.872;2022-09-23T14:51:46;3.17;;;2.80;;
8572;SDS011;4324;42.012;24.872;2022-09-23T14:57:25;2.57;;;2.00;;
8572;SDS011;4324;42.012;24.872;2022-09-23T14:59:54;3.20;;;2.90;;
8572;SDS011;4324;42.012;24.872;2022-09-23T15:02:29;2.43;;;2.20;;
8572;SDS011;4324;42.012;24.872;2022-09-23T15:07:56;2.27;;;2.17;;
8572;SDS011;4324;42.012;24.872;2022-09-23T15:10:28;2.40;;;2.20;;
8572;SDS011;4324;42.012;24.872;2022-09-23T15:13:00;4.80;;;4.37;;
8572;SDS011;4324;42.012;24.872;2022-09-23T15:15:31;2.67;;;2.47;;
8572;SDS011;4324;42.012;24.872;2022-09-23T15:18:05;2.90;;;2.70;;
8572;SDS011;4324;42.012;24.872;2022-09-23T15:20:39;2.53;;;2.17;;
8572;SDS011;4324;42.012;24.872;2022-09-23T15:25:57;2.70;;;2.50;;
8572;SDS011;4324;42.012;24.872;2022-09-23T15:28:31;3.33;;;2.43;;
8572;SDS011;4324;42.012;24.872;2022-09-23T15:30:58;2.67;;;2.43;;
8572;SDS011;4324;42.012;24.872;2022-09-23T15:33:27;3.33;;;2.30;;
8572;SDS011;4324;42.012;24.872;2022-09-23T15:35:54;4.00;;;2.70;;
8572;SDS011;4324;42.012;24.872;2022-09-23T15:38:21;3.40;;;3.10;;
8572;SDS011;4324;42.012;24.872;2022-09-23T15:40:48;6.60;;;5.20;;
8572;SDS011;4324;42.012;24.872;2022-09-23T15:43:16;6.00;;;4.50;;
8572;SDS011;4324;42.012;24.872;2022-09-23T15:45:45;5.80;;;5.20;;
8572;SDS011;4324;42.012;24.872;2022-09-23T15:48:17;6.97;;;5.83;;
8572;SDS011;4324;42.012;24.872;2022-09-23T15:50:48;7.33;;;5.97;;
8572;SDS011;4324;42.012;24.872;2022-09-23T15:53:16;6.90;;;4.80;;
8572;SDS011;4324;42.012;24.872;2022-09-23T15:55:46;5.33;;;4.70;;
8572;SDS011;4324;42.012;24.872;2022-09-23T15:58:14;4.83;;;3.63;;
8572;SDS011;4324;42.012;24.872;2022-09-23T16:00:41;4.13;;;3.37;;
8572;SDS011;4324;42.012;24.872;2022-09-23T16:03:09;4.50;;;3.23;;
8572;SDS011;4324;42.012;24.872;2022-09-23T16:05:39;5.60;;;3.73;;
8572;SDS011;4324;42.012;24.872;2022-09-23T16:08:12;4.03;;;3.50;;
8572;SDS011;4324;42.012;24.872;2022-09-23T16:10:39;5.37;;;3.20;;